createdAt,value
2023-04-05T00:00:35.356Z,9.80
2023-04-05T00:03:03.092Z,9.70
2023-04-05T00:05:34.494Z,9.70
2023-04-05T00:08:01.819Z,9.70
2023-04-05T00:10:32.752Z,9.70
2023-04-05T00:13:00.343Z,9.60
2023-04-05T00:15:32.016Z,9.60
2023-04-05T00:18:00.341Z,9.50
2023-04-05T00:20:27.208Z,9.50
2023-04-05T00:22:54.022Z,9.50
2023-04-05T00:25:22.053Z,9.40
2023-04-05T00:27:48.880Z,9.40
2023-04-05T00:30:20.839Z,9.40
2023-04-05T00:32:50.003Z,9.30
2023-04-05T00:35:17.773Z,9.30
2023-04-05T00:37:44.732Z,9.20
2023-04-05T00:40:12.020Z,9.20
2023-04-05T00:42:38.849Z,9.10
2023-04-05T00:45:06.414Z,9.10
2023-04-05T00:47:33.353Z,9.10
2023-04-05T00:50:01.168Z,9.00
2023-04-05T00:52:28.753Z,9.00
2023-04-05T00:54:56.868Z,8.90
2023-04-05T00:57:25.032Z,8.90
2023-04-05T00:59:51.911Z,8.90
2023-04-05T01:02:28.678Z,8.80
2023-04-05T01:05:02.729Z,8.80
2023-04-05T01:07:38.497Z,8.70
2023-04-05T01:10:09.606Z,8.70
2023-04-05T01:12:38.305Z,8.70
2023-04-05T01:15:06.074Z,8.70
2023-04-05T01:17:36.981Z,8.70
2023-04-05T01:20:13.298Z,8.60
2023-04-05T01:23:06.523Z,8.60
2023-04-05T01:25:54.683Z,8.60
2023-04-05T01:28:38.704Z,8.60
2023-04-05T01:31:28.574Z,8.50
2023-04-05T01:34:19.634Z,8.40
2023-04-05T01:36:57.864Z,8.40
2023-04-05T01:39:28.247Z,8.40
2023-04-05T01:42:01.205Z,8.40
2023-04-05T01:44:29.124Z,8.30
2023-04-05T01:46:56.326Z,8.30
2023-04-05T01:49:24.372Z,8.30
2023-04-05T01:51:51.306Z,8.30
2023-04-05T01:54:18.230Z,8.20
2023-04-05T01:56:45.090Z,8.20
2023-04-05T01:59:11.981Z,8.20
2023-04-05T02:01:38.796Z,8.20
2023-04-05T02:04:05.628Z,8.10
2023-04-05T02:06:32.807Z,8.10
2023-04-05T02:09:01.972Z,8.00
2023-04-05T02:11:28.865Z,8.00
2023-04-05T02:13:58.747Z,8.00
2023-04-05T02:16:27.266Z,7.90
2023-04-05T02:18:57.932Z,7.90
2023-04-05T02:21:26.185Z,7.80
2023-04-05T02:23:53.920Z,7.80
2023-04-05T02:26:21.317Z,7.80
2023-04-05T02:28:48.328Z,7.80
2023-04-05T02:31:15.484Z,7.80
2023-04-05T02:33:42.583Z,7.80
2023-04-05T02:36:11.036Z,7.70
2023-04-05T02:38:38.584Z,7.70
2023-04-05T02:41:09.690Z,7.70
2023-04-05T02:43:38.616Z,7.60
2023-04-05T02:46:05.652Z,7.60
2023-04-05T02:48:37.333Z,7.60
2023-04-05T02:51:04.731Z,7.50
2023-04-05T02:53:31.600Z,7.50
2023-04-05T02:56:02.014Z,7.50
2023-04-05T02:58:30.649Z,7.40
2023-04-05T03:00:57.492Z,7.40
2023-04-05T03:03:30.725Z,7.40
2023-04-05T03:06:10.062Z,7.40
2023-04-05T03:08:49.211Z,7.40
2023-04-05T03:11:20.819Z,7.30
2023-04-05T03:13:51.569Z,7.30
2023-04-05T03:16:32.952Z,7.30
2023-04-05T03:19:06.371Z,7.20
2023-04-05T03:21:36.080Z,7.20
2023-04-05T03:24:10.277Z,7.20
2023-04-05T03:26:41.001Z,7.20
2023-04-05T03:29:08.352Z,7.20
2023-04-05T03:31:38.377Z,7.10
2023-04-05T03:34:09.086Z,7.10
2023-04-05T03:36:43.840Z,7.10
2023-04-05T03:39:24.561Z,7.00
2023-04-05T03:41:51.416Z,7.00
2023-04-05T03:44:18.968Z,7.00
2023-04-05T03:46:45.848Z,7.00
2023-04-05T03:49:14.211Z,7.00
2023-04-05T03:51:41.209Z,6.90
2023-04-05T03:54:08.061Z,6.90
2023-04-05T03:56:36.843Z,6.90
2023-04-05T03:59:16.077Z,6.90
2023-04-05T04:01:44.872Z,6.90
2023-04-05T04:04:13.721Z,6.80
2023-04-05T04:06:44.922Z,6.80
2023-04-05T04:09:13.117Z,6.80
2023-04-05T04:11:40.859Z,6.80
2023-04-05T04:14:08.733Z,6.70
2023-04-05T04:16:54.345Z,6.70
2023-04-05T04:19:39.886Z,6.70
2023-04-05T04:22:33.229Z,6.70
2023-04-05T04:25:20.333Z,6.70
2023-04-05T04:28:09.668Z,6.60
2023-04-05T04:30:55.546Z,6.60
2023-04-05T04:33:36.377Z,6.60
2023-04-05T04:36:35.161Z,6.60
2023-04-05T04:39:36.166Z,6.60
2023-04-05T04:42:44.356Z,6.60
2023-04-05T04:45:37.991Z,6.60
2023-04-05T04:48:23.714Z,6.60
2023-04-05T04:50:57.677Z,6.50
2023-04-05T04:53:25.564Z,6.50
2023-04-05T04:55:52.463Z,6.50
2023-04-05T04:58:19.610Z,6.50
2023-04-05T05:00:57.164Z,6.50
2023-04-05T05:03:24.016Z,6.40
2023-04-05T05:05:51.678Z,6.40
2023-04-05T05:08:22.504Z,6.40
2023-04-05T05:10:53.585Z,6.40
2023-04-05T05:13:20.500Z,6.40
2023-04-05T05:15:48.521Z,6.40
2023-04-05T05:18:16.204Z,6.40
2023-04-05T05:20:43.373Z,6.40
2023-04-05T05:23:10.544Z,6.40
2023-04-05T05:25:38.678Z,6.50
2023-04-05T05:28:05.955Z,6.50
2023-04-05T05:30:33.528Z,6.50
2023-04-05T05:33:01.329Z,6.50
2023-04-05T05:35:28.449Z,6.50
2023-04-05T05:37:55.537Z,6.50
2023-04-05T05:40:22.345Z,6.50
2023-04-05T05:42:49.761Z,6.50
2023-04-05T05:45:16.722Z,6.50
2023-04-05T05:47:43.629Z,6.50
2023-04-05T05:50:10.980Z,6.50
2023-04-05T05:52:38.045Z,6.50
2023-04-05T05:55:05.534Z,6.50
2023-04-05T05:57:32.558Z,6.50
2023-04-05T05:59:59.488Z,6.50
2023-04-05T06:02:27.501Z,6.40
2023-04-05T06:04:55.295Z,6.40
2023-04-05T06:07:23.150Z,6.40
2023-04-05T06:09:50.187Z,6.40
2023-04-05T06:12:17.056Z,6.40
2023-04-05T06:14:43.985Z,6.40
2023-04-05T06:17:10.916Z,6.50
2023-04-05T06:19:38.378Z,6.50
2023-04-05T06:22:05.328Z,6.50
2023-04-05T06:24:32.287Z,6.60
2023-04-05T06:26:59.801Z,6.60
2023-04-05T06:29:26.967Z,6.70
2023-04-05T06:31:55.175Z,6.70
2023-04-05T06:34:22.607Z,6.70
2023-04-05T06:36:50.089Z,6.80
2023-04-05T06:39:17.327Z,6.80
2023-04-05T06:41:44.240Z,6.90
2023-04-05T06:44:11.126Z,6.90
2023-04-05T06:46:38.015Z,7.00
2023-04-05T06:49:04.995Z,7.00
2023-04-05T06:51:32.031Z,7.10
2023-04-05T06:53:59.090Z,7.20
2023-04-05T06:56:25.978Z,7.20
2023-04-05T06:58:53.185Z,7.30
2023-04-05T07:01:20.432Z,7.40
2023-04-05T07:03:47.345Z,7.50
2023-04-05T07:06:14.327Z,7.60
2023-04-05T07:08:41.186Z,7.70
2023-04-05T07:11:08.497Z,7.80
2023-04-05T07:13:35.534Z,7.90
2023-04-05T07:16:03.508Z,7.90
2023-04-05T07:18:30.731Z,8.10
2023-04-05T07:21:03.901Z,8.10
2023-04-05T07:23:31.740Z,8.20
2023-04-05T07:26:05.910Z,8.30
2023-04-05T07:28:35.637Z,8.40
2023-04-05T07:31:04.161Z,8.50
2023-04-05T07:33:31.278Z,8.60
2023-04-05T07:35:58.722Z,8.70
2023-04-05T07:38:27.037Z,8.80
2023-04-05T07:40:53.888Z,8.90
2023-04-05T07:43:20.779Z,9.00
2023-04-05T07:45:47.685Z,9.10
2023-04-05T07:48:14.518Z,9.20
2023-04-05T07:50:42.785Z,9.30
2023-04-05T07:53:10.083Z,9.30
2023-04-05T07:55:41.105Z,9.40
2023-04-05T07:58:08.116Z,9.60
2023-04-05T08:00:34.973Z,9.70
2023-04-05T08:03:02.549Z,9.70
2023-04-05T08:05:29.733Z,9.90
2023-04-05T08:07:58.267Z,9.90
2023-04-05T08:10:25.801Z,10.10
2023-04-05T08:12:53.582Z,10.20
2023-04-05T08:15:21.111Z,10.30
2023-04-05T08:17:48.083Z,10.40
2023-04-05T08:20:15.109Z,10.50
2023-04-05T08:22:42.310Z,10.70
2023-04-05T08:25:09.720Z,10.80
2023-04-05T08:27:36.644Z,10.90
2023-04-05T08:30:04.222Z,11.00
2023-04-05T08:32:32.074Z,11.10
2023-04-05T08:34:59.000Z,11.30
2023-04-05T08:37:26.131Z,11.40
2023-04-05T08:39:52.982Z,11.50
2023-04-05T08:42:28.691Z,11.60
2023-04-05T08:44:59.831Z,11.70
2023-04-05T08:47:27.962Z,11.80
2023-04-05T08:49:55.449Z,11.90
2023-04-05T08:52:22.492Z,12.00
2023-04-05T08:54:50.933Z,12.10
2023-04-05T08:57:19.897Z,12.20
2023-04-05T08:59:48.041Z,12.30
2023-04-05T09:02:17.515Z,12.40
2023-04-05T09:04:45.736Z,12.50
2023-04-05T09:07:14.637Z,12.60
2023-04-05T09:09:46.549Z,12.70
2023-04-05T09:12:14.444Z,12.80
2023-04-05T09:14:43.150Z,12.90
2023-04-05T09:17:11.149Z,13.00
2023-04-05T09:19:38.139Z,13.10
2023-04-05T09:22:06.663Z,13.20
2023-04-05T09:24:41.733Z,13.40
2023-04-05T09:27:13.787Z,13.50
2023-04-05T09:29:42.279Z,13.60
2023-04-05T09:32:11.782Z,13.70
2023-04-05T09:34:40.179Z,13.80
2023-04-05T09:37:16.005Z,13.80
2023-04-05T09:39:44.427Z,14.00
2023-04-05T09:42:15.988Z,14.10
2023-04-05T09:45:02.867Z,14.20
2023-04-05T09:47:37.127Z,14.30
2023-04-05T09:50:16.161Z,14.40
2023-04-05T09:52:47.421Z,14.60
2023-04-05T09:55:27.914Z,14.70
2023-04-05T09:57:54.992Z,14.80
2023-04-05T10:00:23.163Z,14.90
2023-04-05T10:02:58.431Z,15.00
2023-04-05T10:05:28.248Z,15.20
2023-04-05T10:07:56.456Z,15.30
2023-04-05T10:10:24.460Z,15.40
2023-04-05T10:12:52.862Z,15.50
2023-04-05T10:15:20.538Z,15.60
2023-04-05T10:17:53.564Z,15.80
2023-04-05T10:20:21.186Z,15.90
2023-04-05T10:23:13.460Z,16.00
2023-04-05T10:25:53.642Z,16.10
2023-04-05T10:28:23.652Z,16.30
2023-04-05T10:30:54.127Z,16.40
2023-04-05T10:33:29.466Z,16.60
2023-04-05T10:36:37.946Z,16.60
2023-04-05T10:39:16.872Z,16.70
2023-04-05T10:42:07.089Z,16.80
2023-04-05T10:44:36.880Z,16.90
2023-04-05T10:47:06.931Z,17.00
2023-04-05T10:49:40.678Z,17.20
2023-04-05T10:52:07.501Z,17.30
2023-04-05T10:54:37.562Z,17.40
2023-04-05T10:57:11.172Z,17.50
2023-04-05T10:59:46.637Z,17.60
2023-04-05T11:02:14.613Z,17.70
2023-04-05T11:04:42.731Z,17.80
2023-04-05T11:07:17.567Z,17.80
2023-04-05T11:10:02.144Z,17.90
2023-04-05T11:12:48.231Z,18.00
2023-04-05T11:15:30.465Z,18.10
2023-04-05T11:18:06.191Z,18.20
2023-04-05T11:20:47.894Z,18.20
2023-04-05T11:23:19.130Z,18.20
2023-04-05T11:26:03.546Z,18.10
2023-04-05T11:28:39.529Z,18.10
2023-04-05T11:31:22.895Z,18.10
2023-04-05T11:34:09.895Z,18.00
2023-04-05T11:36:44.503Z,17.90
2023-04-05T11:39:21.372Z,17.80
2023-04-05T11:42:06.536Z,17.60
2023-04-05T11:44:45.330Z,17.40
2023-04-05T11:47:13.651Z,17.20
2023-04-05T11:49:42.171Z,17.00
2023-04-05T11:52:17.402Z,16.80
2023-04-05T11:54:49.750Z,16.60
2023-04-05T11:57:21.096Z,16.40
2023-04-05T11:59:53.562Z,16.20
2023-04-05T12:02:21.410Z,16.10
2023-04-05T12:04:58.342Z,15.90
2023-04-05T12:07:36.723Z,15.80
2023-04-05T12:10:05.798Z,15.70
2023-04-05T12:12:38.554Z,15.60
2023-04-05T12:15:10.912Z,15.40
2023-04-05T12:17:46.127Z,15.40
2023-04-05T12:20:14.992Z,15.30
2023-04-05T12:22:43.976Z,15.30
2023-04-05T12:25:11.624Z,15.20
2023-04-05T12:27:38.874Z,15.10
2023-04-05T12:30:09.702Z,15.00
2023-04-05T12:32:40.641Z,14.90
2023-04-05T12:35:15.928Z,14.90
2023-04-05T12:37:43.038Z,14.80
2023-04-05T12:40:10.732Z,14.80
2023-04-05T12:42:39.128Z,14.70
2023-04-05T12:45:11.406Z,14.70
2023-04-05T12:47:56.738Z,14.70
2023-04-05T12:50:29.799Z,14.60
2023-04-05T12:52:57.833Z,14.60
2023-04-05T12:55:25.870Z,14.50
2023-04-05T12:57:54.328Z,14.50
2023-04-05T13:00:26.229Z,14.50
2023-04-05T13:02:54.326Z,14.50
2023-04-05T13:05:26.001Z,14.50
2023-04-05T13:07:53.136Z,14.50
2023-04-05T13:10:21.214Z,14.50
2023-04-05T13:12:48.862Z,14.50
2023-04-05T13:15:17.233Z,14.50
2023-04-05T13:17:50.292Z,14.50
2023-04-05T13:20:18.269Z,14.50
2023-04-05T13:22:46.335Z,14.50
2023-04-05T13:25:14.137Z,14.50
2023-04-05T13:27:41.388Z,14.60
2023-04-05T13:30:08.737Z,14.50
2023-04-05T13:32:36.103Z,14.60
2023-04-05T13:35:03.195Z,14.60
2023-04-05T13:37:30.070Z,14.60
2023-04-05T13:39:56.965Z,14.60
2023-04-05T13:42:24.468Z,14.60
2023-04-05T13:44:51.481Z,14.60
2023-04-05T13:47:18.361Z,14.60
2023-04-05T13:49:45.458Z,14.60
2023-04-05T13:52:12.598Z,14.60
2023-04-05T13:54:39.538Z,14.60
2023-04-05T13:57:06.506Z,14.60
2023-04-05T13:59:33.554Z,14.60
2023-04-05T14:02:00.890Z,14.60
2023-04-05T14:04:28.669Z,14.60
2023-04-05T14:06:55.570Z,14.60
2023-04-05T14:09:22.410Z,14.60
2023-04-05T14:11:49.311Z,14.70
2023-04-05T14:14:16.218Z,14.70
2023-04-05T14:16:43.372Z,14.70
2023-04-05T14:19:10.480Z,14.70
2023-04-05T14:21:37.400Z,14.60
2023-04-05T14:24:04.320Z,14.60
2023-04-05T14:26:31.438Z,14.60
2023-04-05T14:28:58.364Z,14.60
2023-04-05T14:31:25.700Z,14.60
2023-04-05T14:33:52.675Z,14.60
2023-04-05T14:36:19.605Z,14.60
2023-04-05T14:38:46.651Z,14.60
2023-04-05T14:41:13.933Z,14.60
2023-04-05T14:43:41.941Z,14.60
2023-04-05T14:46:08.838Z,14.60
2023-04-05T14:48:35.882Z,14.60
2023-04-05T14:51:03.044Z,14.60
2023-04-05T14:53:30.722Z,14.50
2023-04-05T14:55:57.960Z,14.50
2023-04-05T14:58:24.775Z,14.50
2023-04-05T15:00:51.919Z,14.50
2023-04-05T15:03:19.743Z,14.50
2023-04-05T15:05:47.472Z,14.50
2023-04-05T15:08:14.890Z,14.50
2023-04-05T15:10:45.048Z,14.50
2023-04-05T15:13:12.819Z,14.60
2023-04-05T15:15:40.507Z,14.60
2023-04-05T15:18:10.658Z,14.60
2023-04-05T15:20:38.032Z,14.60
2023-04-05T15:23:05.857Z,14.60
2023-04-05T15:25:33.028Z,14.60
2023-04-05T15:28:04.146Z,14.60
2023-04-05T15:30:33.562Z,14.60
2023-04-05T15:33:00.815Z,14.60
2023-04-05T15:35:27.877Z,14.70
2023-04-05T15:37:54.744Z,14.70
2023-04-05T15:40:21.644Z,14.70
2023-04-05T15:42:48.548Z,14.60
2023-04-05T15:45:15.564Z,14.70
2023-04-05T15:47:42.462Z,14.60
2023-04-05T15:50:09.443Z,14.60
2023-04-05T15:52:36.355Z,14.70
2023-04-05T15:55:04.170Z,14.70
2023-04-05T15:57:31.229Z,14.70
2023-04-05T15:59:58.118Z,14.70
2023-04-05T16:02:25.626Z,14.70
2023-04-05T16:04:52.806Z,14.70
2023-04-05T16:07:19.781Z,14.70
2023-04-05T16:09:46.709Z,14.70
2023-04-05T16:12:13.644Z,14.70
2023-04-05T16:14:40.661Z,14.70
2023-04-05T16:17:07.556Z,14.80
2023-04-05T16:19:34.464Z,14.80
2023-04-05T16:22:03.567Z,14.80
2023-04-05T16:24:33.109Z,14.80
2023-04-05T16:26:59.900Z,14.80
2023-04-05T16:29:27.227Z,14.80
2023-04-05T16:31:55.582Z,14.80
2023-04-05T16:34:23.024Z,14.80
2023-04-05T16:36:49.839Z,14.80
2023-04-05T16:39:16.658Z,14.70
2023-04-05T16:41:43.599Z,14.80
2023-04-05T16:44:10.439Z,14.80
2023-04-05T16:49:04.692Z,14.80
2023-04-05T16:51:31.912Z,14.70
2023-04-05T16:53:58.882Z,14.80
2023-04-05T16:56:25.838Z,14.80
2023-04-05T16:58:52.726Z,14.70
2023-04-05T17:01:19.673Z,14.70
2023-04-05T17:03:49.309Z,14.70
2023-04-05T17:06:16.274Z,14.70
2023-04-05T17:08:43.178Z,14.70
2023-04-05T17:11:10.548Z,14.70
2023-04-05T17:13:37.457Z,14.70
2023-04-05T17:16:04.631Z,14.70
2023-04-05T17:18:31.698Z,14.70
2023-04-05T17:20:58.609Z,14.70
2023-04-05T17:23:25.654Z,14.70
2023-04-05T17:25:52.766Z,14.70
2023-04-05T17:28:19.681Z,14.70
2023-04-05T17:30:46.804Z,14.70
2023-04-05T17:33:13.884Z,14.70
2023-04-05T17:35:41.356Z,14.60
2023-04-05T17:38:10.370Z,14.60
2023-04-05T17:40:37.416Z,14.60
2023-04-05T17:43:04.489Z,14.60
2023-04-05T17:45:31.699Z,14.50
2023-04-05T17:47:58.634Z,14.50
2023-04-05T17:50:25.721Z,14.50
2023-04-05T17:52:52.787Z,14.50
2023-04-05T17:55:19.726Z,14.50
2023-04-05T17:57:46.624Z,14.40
2023-04-05T18:00:14.455Z,14.50
2023-04-05T18:02:41.618Z,14.40
2023-04-05T18:05:10.160Z,14.40
2023-04-05T18:07:37.945Z,14.40
2023-04-05T18:10:05.758Z,14.30
2023-04-05T18:12:33.471Z,14.30
2023-04-05T18:15:00.674Z,14.30
2023-04-05T18:17:28.104Z,14.30
2023-04-05T18:19:55.198Z,14.20
2023-04-05T18:22:22.148Z,14.20
2023-04-05T18:24:49.170Z,14.10
2023-04-05T18:27:16.103Z,14.10
2023-04-05T18:29:43.007Z,14.10
2023-04-05T18:32:10.195Z,14.00
2023-04-05T18:34:37.141Z,14.00
2023-04-05T18:37:04.300Z,14.00
2023-04-05T18:39:31.815Z,13.90
2023-04-05T18:41:59.155Z,13.90
2023-04-05T18:44:26.157Z,13.80
2023-04-05T18:46:53.736Z,13.80
2023-04-05T18:49:21.252Z,13.80
2023-04-05T18:51:48.992Z,13.70
2023-04-05T18:54:18.376Z,13.70
2023-04-05T18:56:46.118Z,13.60
2023-04-05T18:59:13.207Z,13.60
2023-04-05T19:01:40.106Z,13.50
2023-04-05T19:04:07.413Z,13.40
2023-04-05T19:06:34.990Z,13.40
2023-04-05T19:09:02.119Z,13.30
2023-04-05T19:11:29.079Z,13.30
2023-04-05T19:13:56.104Z,13.20
2023-04-05T19:16:23.187Z,13.20
2023-04-05T19:18:50.343Z,13.10
2023-04-05T19:21:17.456Z,13.10
2023-04-05T19:23:44.274Z,13.00
2023-04-05T19:26:11.373Z,12.90
2023-04-05T19:28:39.058Z,12.90
2023-04-05T19:31:06.371Z,12.80
2023-04-05T19:33:33.635Z,12.70
2023-04-05T19:36:02.720Z,12.70
2023-04-05T19:38:29.635Z,12.60
2023-04-05T19:40:56.550Z,12.60
2023-04-05T19:43:27.240Z,12.50
2023-04-05T19:45:58.167Z,12.50
2023-04-05T19:48:41.953Z,12.40
2023-04-05T19:51:14.103Z,12.30
2023-04-05T19:53:49.677Z,12.30
2023-04-05T19:56:22.801Z,12.20
2023-04-05T19:58:56.069Z,12.10
2023-04-05T20:01:29.599Z,12.00
2023-04-05T20:03:56.571Z,12.00
2023-04-05T20:06:24.209Z,11.90
2023-04-05T20:08:51.263Z,11.80
2023-04-05T20:11:24.342Z,11.70
2023-04-05T20:13:56.963Z,11.70
2023-04-05T20:16:35.389Z,11.60
2023-04-05T20:19:04.690Z,11.60
2023-04-05T20:21:32.581Z,11.60
2023-04-05T20:24:01.283Z,11.50
2023-04-05T20:26:32.620Z,11.50
2023-04-05T20:29:01.813Z,11.40
2023-04-05T20:31:39.295Z,11.30
2023-04-05T20:34:11.348Z,11.30
2023-04-05T20:36:48.148Z,11.30
2023-04-05T20:39:15.388Z,11.30
2023-04-05T20:41:42.735Z,11.20
2023-04-05T20:44:09.802Z,11.20
2023-04-05T20:46:36.775Z,11.10
2023-04-05T20:49:03.759Z,11.10
2023-04-05T20:51:30.719Z,11.10
2023-04-05T20:53:57.595Z,11.10
2023-04-05T20:56:24.923Z,11.00
2023-04-05T20:58:52.483Z,11.00
2023-04-05T21:01:19.983Z,11.00
2023-04-05T21:03:47.131Z,10.90
2023-04-05T21:06:13.968Z,10.90
2023-04-05T21:08:41.503Z,10.90
2023-04-05T21:11:11.638Z,10.80
2023-04-05T21:13:39.437Z,10.80
2023-04-05T21:16:06.662Z,10.80
2023-04-05T21:18:33.810Z,10.70
2023-04-05T21:21:01.007Z,10.70
2023-04-05T21:23:29.131Z,10.70
2023-04-05T21:25:57.020Z,10.70
2023-04-05T21:28:25.297Z,10.60
2023-04-05T21:30:52.432Z,10.60
2023-04-05T21:33:19.832Z,10.60
2023-04-05T21:35:46.852Z,10.60
2023-04-05T21:38:15.744Z,10.50
2023-04-05T21:40:44.717Z,10.50
2023-04-05T21:43:13.547Z,10.40
2023-04-05T21:45:40.734Z,10.40
2023-04-05T21:48:07.911Z,10.40
2023-04-05T21:50:34.832Z,10.30
2023-04-05T21:53:01.661Z,10.30
2023-04-05T21:55:28.443Z,10.20
2023-04-05T21:57:55.675Z,10.20
2023-04-05T22:00:22.613Z,10.20
2023-04-05T22:02:49.393Z,10.10
2023-04-05T22:05:29.709Z,10.10
2023-04-05T22:08:01.483Z,10.10
2023-04-05T22:10:28.980Z,10.00
2023-04-05T22:12:56.102Z,10.00
2023-04-05T22:15:23.017Z,9.90
2023-04-05T22:17:49.857Z,9.90
2023-04-05T22:20:16.946Z,9.90
2023-04-05T22:22:43.807Z,9.80
2023-04-05T22:25:11.091Z,9.80
2023-04-05T22:27:37.888Z,9.80
2023-04-05T22:30:06.448Z,9.80
2023-04-05T22:32:33.323Z,9.80
2023-04-05T22:35:00.358Z,9.70
2023-04-05T22:37:27.222Z,9.70
2023-04-05T22:39:54.041Z,9.70
2023-04-05T22:42:20.848Z,9.60
2023-04-05T22:44:47.745Z,9.60
2023-04-05T22:47:14.531Z,9.60
2023-04-05T22:49:41.371Z,9.60
2023-04-05T22:52:08.395Z,9.60
2023-04-05T22:54:35.382Z,9.50
2023-04-05T22:57:02.539Z,9.50
2023-04-05T22:59:29.441Z,9.50
2023-04-05T23:01:57.184Z,9.50
2023-04-05T23:04:24.188Z,9.50
2023-04-05T23:06:51.048Z,9.40
2023-04-05T23:09:17.952Z,9.40
2023-04-05T23:11:44.766Z,9.40
2023-04-05T23:14:12.015Z,9.40
2023-04-05T23:16:39.481Z,9.40
2023-04-05T23:19:07.839Z,9.30
2023-04-05T23:21:34.907Z,9.30
2023-04-05T23:24:02.585Z,9.30
2023-04-05T23:26:29.493Z,9.30
2023-04-05T23:28:56.580Z,9.30
2023-04-05T23:31:23.400Z,9.20
2023-04-05T23:33:50.264Z,9.20
2023-04-05T23:36:17.094Z,9.20
2023-04-05T23:38:43.900Z,9.20
2023-04-05T23:41:11.052Z,9.20
2023-04-05T23:43:37.890Z,9.20
2023-04-05T23:46:04.979Z,9.20
2023-04-05T23:48:31.992Z,9.20
2023-04-05T23:50:58.911Z,9.20
2023-04-05T23:53:25.880Z,9.20
2023-04-05T23:55:55.684Z,9.10
2023-04-05T23:58:23.022Z,9.10
